createdAt,value
2022-10-06T00:01:17.273Z,12.67
2022-10-06T00:04:03.578Z,12.71
2022-10-06T00:06:49.746Z,12.77
2022-10-06T00:09:35.988Z,12.70
2022-10-06T00:12:21.889Z,12.53
2022-10-06T00:15:08.947Z,12.64
2022-10-06T00:17:55.400Z,12.23
2022-10-06T00:20:44.718Z,12.37
2022-10-06T00:23:30.678Z,12.34
2022-10-06T00:26:17.443Z,12.29
2022-10-06T00:29:03.712Z,11.89
2022-10-06T00:31:50.837Z,11.00
2022-10-06T00:34:36.800Z,10.00
2022-10-06T00:37:22.939Z,10.52
2022-10-06T00:40:09.846Z,11.14
2022-10-06T00:42:57.142Z,11.58
2022-10-06T00:45:44.057Z,11.91
2022-10-06T00:48:30.731Z,12.18
2022-10-06T00:51:17.002Z,12.21
2022-10-06T00:54:03.492Z,12.09
2022-10-06T00:56:49.482Z,11.69
2022-10-06T00:59:35.671Z,11.85
2022-10-06T01:02:29.578Z,11.61
2022-10-06T01:05:16.781Z,11.44
2022-10-06T01:08:03.579Z,11.79
2022-10-06T01:10:49.963Z,11.90
2022-10-06T01:13:35.892Z,12.03
2022-10-06T01:16:23.573Z,12.08
2022-10-06T01:19:10.977Z,12.05
2022-10-06T01:21:58.122Z,11.76
2022-10-06T01:24:44.981Z,11.75
2022-10-06T01:27:31.866Z,11.39
2022-10-06T01:30:18.730Z,11.52
2022-10-06T01:33:04.813Z,11.56
2022-10-06T01:35:51.983Z,11.18
2022-10-06T01:38:37.995Z,11.37
2022-10-06T01:41:25.639Z,10.82
2022-10-06T01:44:11.666Z,10.93
2022-10-06T01:46:57.383Z,11.45
2022-10-06T01:49:43.369Z,11.22
2022-10-06T01:52:29.891Z,11.37
2022-10-06T01:55:17.278Z,11.67
2022-10-06T01:58:03.673Z,11.70
2022-10-06T02:00:51.058Z,11.64
2022-10-06T02:03:37.676Z,11.49
2022-10-06T02:06:23.683Z,11.44
2022-10-06T02:09:09.974Z,11.43
2022-10-06T02:11:58.252Z,11.20
2022-10-06T02:14:47.609Z,10.74
2022-10-06T02:17:33.500Z,10.80
2022-10-06T02:20:21.363Z,10.71
2022-10-06T02:23:11.322Z,10.18
2022-10-06T02:26:05.678Z,10.29
2022-10-06T02:28:52.871Z,10.56
2022-10-06T02:31:39.346Z,10.54
2022-10-06T02:34:25.844Z,11.03
2022-10-06T02:37:15.972Z,11.20
2022-10-06T02:40:02.536Z,11.05
2022-10-06T02:42:49.008Z,10.94
2022-10-06T02:45:35.514Z,11.15
2022-10-06T02:48:21.743Z,10.76
2022-10-06T02:51:11.581Z,10.65
2022-10-06T02:53:57.732Z,10.90
2022-10-06T02:56:43.650Z,10.58
2022-10-06T02:59:29.598Z,10.57
2022-10-06T03:02:17.077Z,10.77
2022-10-06T03:05:02.756Z,10.59
2022-10-06T03:07:49.397Z,10.53
2022-10-06T03:10:35.691Z,10.65
2022-10-06T03:13:22.227Z,10.51
2022-10-06T03:16:15.893Z,10.77
2022-10-06T03:19:02.472Z,10.68
2022-10-06T03:21:48.883Z,10.97
2022-10-06T03:24:35.117Z,10.90
2022-10-06T03:27:20.885Z,10.82
2022-10-06T03:30:08.132Z,10.70
2022-10-06T03:32:54.415Z,10.69
2022-10-06T03:35:40.819Z,10.66
2022-10-06T03:38:26.920Z,10.59
2022-10-06T03:41:18.498Z,10.36
2022-10-06T03:44:04.701Z,10.43
2022-10-06T03:46:51.339Z,10.63
2022-10-06T03:49:39.025Z,10.67
2022-10-06T03:52:26.246Z,10.77
2022-10-06T03:55:12.304Z,10.47
2022-10-06T03:57:59.112Z,10.31
2022-10-06T04:00:46.420Z,10.10
2022-10-06T04:03:33.408Z,10.09
2022-10-06T04:06:19.651Z,9.72
2022-10-06T04:09:11.342Z,10.21
2022-10-06T04:12:00.241Z,10.46
2022-10-06T04:14:46.809Z,10.41
2022-10-06T04:17:32.919Z,10.30
2022-10-06T04:20:19.197Z,10.23
2022-10-06T04:23:05.737Z,10.16
2022-10-06T04:25:57.851Z,10.01
2022-10-06T04:28:44.270Z,9.81
2022-10-06T04:31:31.669Z,10.02
2022-10-06T04:34:18.187Z,10.14
2022-10-06T04:37:04.221Z,10.17
2022-10-06T04:39:50.477Z,10.15
2022-10-06T04:42:37.448Z,10.07
2022-10-06T04:45:23.759Z,9.65
2022-10-06T04:48:10.252Z,9.62
2022-10-06T04:51:00.641Z,10.00
2022-10-06T04:53:47.164Z,9.80
2022-10-06T04:56:33.483Z,9.80
2022-10-06T04:59:20.015Z,10.12
2022-10-06T05:02:07.286Z,10.11
2022-10-06T05:04:53.289Z,9.94
2022-10-06T05:07:39.214Z,10.04
2022-10-06T05:10:26.036Z,10.07
2022-10-06T05:13:13.362Z,10.09
2022-10-06T05:16:00.337Z,9.87
2022-10-06T05:18:46.404Z,9.73
2022-10-06T05:21:33.241Z,9.78
2022-10-06T05:24:19.299Z,9.98
2022-10-06T05:27:06.585Z,10.16
2022-10-06T05:29:52.399Z,10.26
2022-10-06T05:32:38.909Z,10.29
2022-10-06T05:35:25.287Z,9.99
2022-10-06T05:38:11.762Z,10.01
2022-10-06T05:41:05.035Z,9.41
2022-10-06T05:43:51.673Z,9.56
2022-10-06T05:46:37.556Z,9.73
2022-10-06T05:49:24.897Z,9.85
2022-10-06T05:52:11.104Z,10.36
2022-10-06T05:54:57.534Z,10.51
2022-10-06T05:57:44.252Z,10.48
2022-10-06T06:00:30.531Z,10.59
2022-10-06T06:03:16.917Z,10.61
2022-10-06T06:06:04.040Z,10.19
2022-10-06T06:08:56.170Z,9.99
2022-10-06T06:11:43.283Z,10.46
2022-10-06T06:14:48.720Z,10.12
2022-10-06T06:17:34.831Z,9.72
2022-10-06T06:20:21.411Z,10.51
2022-10-06T06:23:07.822Z,10.63
2022-10-06T06:26:02.398Z,10.08
2022-10-06T06:28:50.951Z,10.42
2022-10-06T06:31:38.136Z,10.37
2022-10-06T06:34:25.618Z,10.93
2022-10-06T06:37:15.219Z,10.99
2022-10-06T06:40:01.570Z,11.17
2022-10-06T06:42:53.683Z,10.33
2022-10-06T06:45:43.945Z,10.83
2022-10-06T06:48:30.443Z,11.19
2022-10-06T06:51:16.435Z,11.36
2022-10-06T06:54:03.108Z,11.41
2022-10-06T06:56:49.498Z,10.74
2022-10-06T06:59:35.800Z,10.69
2022-10-06T07:02:24.370Z,10.94
2022-10-06T07:05:13.295Z,11.57
2022-10-06T07:07:59.599Z,11.89
2022-10-06T07:10:46.222Z,10.97
2022-10-06T07:13:32.349Z,11.66
2022-10-06T07:16:37.400Z,11.59
2022-10-06T07:19:42.020Z,11.23
2022-10-06T07:22:46.972Z,11.64
2022-10-06T07:25:33.281Z,11.14
2022-10-06T07:28:19.816Z,11.52
2022-10-06T07:31:06.785Z,13.83
2022-10-06T07:33:53.067Z,13.08
2022-10-06T07:36:39.524Z,13.19
2022-10-06T07:39:26.468Z,13.52
2022-10-06T07:42:15.132Z,13.31
2022-10-06T07:45:20.490Z,13.91
2022-10-06T07:48:14.573Z,13.77
2022-10-06T07:51:01.514Z,13.66
2022-10-06T07:53:50.876Z,13.50
2022-10-06T07:56:37.610Z,14.22
2022-10-06T07:59:23.403Z,14.96
2022-10-06T08:02:10.502Z,14.40
2022-10-06T08:04:56.995Z,15.33
2022-10-06T08:07:43.011Z,15.59
2022-10-06T08:10:29.509Z,15.39
2022-10-06T08:13:15.993Z,14.44
2022-10-06T08:16:11.385Z,14.06
2022-10-06T08:18:59.368Z,14.20
2022-10-06T08:21:46.541Z,14.52
2022-10-06T08:24:54.108Z,14.79
2022-10-06T08:27:44.218Z,15.98
2022-10-06T08:30:30.304Z,15.69
2022-10-06T08:33:20.011Z,15.57
2022-10-06T08:36:09.506Z,15.71
2022-10-06T08:38:56.309Z,15.82
2022-10-06T08:41:51.200Z,16.22
2022-10-06T08:44:44.424Z,16.56
2022-10-06T08:47:34.363Z,17.08
2022-10-06T08:50:22.222Z,16.39
2022-10-06T08:53:16.432Z,16.78
2022-10-06T08:56:25.540Z,17.06
2022-10-06T08:59:12.109Z,17.26
2022-10-06T09:01:58.369Z,17.86
2022-10-06T09:04:44.618Z,18.02
2022-10-06T09:07:40.065Z,18.68
2022-10-06T09:10:39.808Z,16.92
2022-10-06T09:13:33.156Z,17.44
2022-10-06T09:16:28.135Z,18.61
2022-10-06T09:19:24.752Z,18.57
2022-10-06T09:22:23.107Z,19.48
2022-10-06T09:25:22.090Z,17.58
2022-10-06T09:28:12.159Z,18.54
2022-10-06T09:31:02.455Z,18.73
2022-10-06T09:33:51.838Z,19.38
2022-10-06T09:37:03.186Z,20.33
2022-10-06T09:39:51.135Z,19.51
2022-10-06T09:42:37.615Z,20.48
2022-10-06T09:45:25.568Z,21.27
2022-10-06T09:48:18.176Z,21.91
2022-10-06T09:51:13.711Z,22.34
2022-10-06T09:54:11.190Z,21.42
2022-10-06T09:56:59.408Z,21.40
2022-10-06T09:59:48.479Z,22.48
2022-10-06T10:02:37.604Z,22.53
2022-10-06T10:05:25.098Z,21.91
2022-10-06T10:08:14.276Z,23.06
2022-10-06T10:11:32.424Z,20.77
2022-10-06T10:14:20.324Z,20.96
2022-10-06T10:17:09.661Z,22.53
2022-10-06T10:19:56.211Z,21.65
2022-10-06T10:22:42.797Z,20.48
2022-10-06T10:25:34.561Z,20.31
2022-10-06T10:28:27.544Z,20.70
2022-10-06T10:31:21.229Z,20.91
2022-10-06T10:34:38.217Z,18.75
2022-10-06T10:37:32.823Z,20.19
2022-10-06T10:40:31.512Z,20.38
2022-10-06T10:43:29.765Z,19.35
2022-10-06T10:46:36.459Z,19.88
2022-10-06T10:49:32.137Z,20.92
2022-10-06T10:52:27.401Z,20.83
2022-10-06T10:55:16.173Z,20.97
2022-10-06T10:58:11.962Z,20.64
2022-10-06T11:01:26.083Z,19.33
2022-10-06T11:04:13.587Z,19.33
2022-10-06T11:07:05.425Z,20.62
2022-10-06T11:10:12.407Z,20.58
2022-10-06T11:13:35.173Z,20.67
2022-10-06T11:16:27.207Z,20.29
2022-10-06T11:19:29.883Z,19.51
2022-10-06T11:22:23.002Z,20.24
2022-10-06T11:25:19.498Z,19.97
2022-10-06T11:28:14.897Z,20.65
2022-10-06T11:31:28.155Z,20.76
2022-10-06T11:34:14.816Z,19.29
2022-10-06T11:37:25.733Z,20.34
2022-10-06T11:40:31.697Z,20.72
2022-10-06T11:43:29.611Z,21.00
2022-10-06T11:46:22.802Z,21.48
2022-10-06T11:49:30.801Z,21.31
2022-10-06T11:52:17.215Z,20.61
2022-10-06T11:55:12.944Z,21.93
2022-10-06T11:58:23.502Z,21.30
2022-10-06T12:01:43.872Z,20.67
2022-10-06T12:04:30.500Z,21.61
2022-10-06T12:07:16.266Z,20.92
2022-10-06T12:10:28.050Z,20.37
2022-10-06T12:13:51.292Z,20.87
2022-10-06T12:17:08.478Z,21.11
2022-10-06T12:20:01.448Z,21.15
2022-10-06T12:22:51.609Z,21.77
2022-10-06T12:25:48.234Z,20.83
2022-10-06T12:28:47.422Z,21.86
2022-10-06T12:31:47.691Z,22.61
2022-10-06T12:34:53.068Z,22.08
2022-10-06T12:37:50.112Z,22.32
2022-10-06T12:40:41.101Z,22.62
2022-10-06T12:43:28.749Z,23.42
2022-10-06T12:46:26.265Z,22.84
2022-10-06T12:49:22.177Z,23.51
2022-10-06T12:52:31.391Z,23.36
2022-10-06T12:55:24.420Z,23.93
2022-10-06T12:58:18.823Z,24.81
2022-10-06T13:01:08.825Z,23.61
2022-10-06T13:03:55.508Z,24.89
2022-10-06T13:06:48.791Z,23.96
2022-10-06T13:09:36.185Z,23.45
2022-10-06T13:12:28.557Z,24.95
2022-10-06T13:15:16.137Z,25.79
2022-10-06T13:18:08.155Z,24.96
2022-10-06T13:20:58.115Z,24.05
2022-10-06T13:23:45.962Z,23.22
2022-10-06T13:26:34.679Z,25.23
2022-10-06T13:29:23.120Z,24.88
2022-10-06T13:32:19.101Z,25.30
2022-10-06T13:35:05.602Z,24.24
2022-10-06T13:37:53.526Z,25.03
2022-10-06T13:40:44.524Z,24.63
2022-10-06T13:43:34.102Z,23.55
2022-10-06T13:46:22.991Z,23.09
2022-10-06T13:49:21.255Z,22.16
2022-10-06T13:52:10.122Z,22.89
2022-10-06T13:55:00.662Z,23.35
2022-10-06T13:57:47.942Z,22.88
2022-10-06T14:00:34.874Z,22.87
2022-10-06T14:03:23.325Z,22.72
2022-10-06T14:06:16.977Z,22.41
2022-10-06T14:09:04.816Z,23.30
2022-10-06T14:11:51.461Z,22.89
2022-10-06T14:14:37.404Z,22.08
2022-10-06T14:17:24.033Z,21.39
2022-10-06T14:20:29.090Z,20.88
2022-10-06T14:23:34.820Z,21.27
2022-10-06T14:26:25.418Z,20.56
2022-10-06T14:29:10.987Z,20.99
2022-10-06T14:32:14.265Z,20.67
2022-10-06T14:35:02.459Z,21.18
2022-10-06T14:37:48.518Z,20.85
2022-10-06T14:40:34.436Z,19.59
2022-10-06T14:43:20.307Z,20.15
2022-10-06T14:46:08.508Z,20.79
2022-10-06T14:48:55.085Z,20.36
2022-10-06T14:51:41.530Z,19.92
2022-10-06T14:54:27.740Z,19.57
2022-10-06T14:57:13.732Z,19.40
2022-10-06T15:00:00.351Z,19.45
2022-10-06T15:02:46.633Z,19.67
2022-10-06T15:05:33.073Z,18.90
2022-10-06T15:08:19.228Z,18.95
2022-10-06T15:11:05.152Z,19.14
2022-10-06T15:13:51.131Z,19.83
2022-10-06T15:16:40.496Z,19.59
2022-10-06T15:19:26.529Z,19.15
2022-10-06T15:22:12.738Z,19.43
2022-10-06T15:24:58.541Z,18.93
2022-10-06T15:28:03.802Z,18.70
2022-10-06T15:30:49.907Z,18.12
2022-10-06T15:33:36.673Z,18.02
2022-10-06T15:36:24.009Z,18.36
2022-10-06T15:39:13.928Z,17.95
2022-10-06T15:41:59.541Z,18.86
2022-10-06T15:44:45.985Z,18.80
2022-10-06T15:47:31.764Z,18.38
2022-10-06T15:50:18.950Z,18.36
2022-10-06T15:53:06.182Z,18.51
2022-10-06T15:55:52.511Z,18.83
2022-10-06T15:58:39.740Z,18.50
2022-10-06T16:01:25.998Z,18.65
2022-10-06T16:04:31.192Z,19.01
2022-10-06T16:07:17.605Z,19.41
2022-10-06T16:10:03.731Z,18.66
2022-10-06T16:12:49.380Z,18.66
2022-10-06T16:15:35.873Z,18.08
2022-10-06T16:18:22.064Z,18.87
2022-10-06T16:21:08.088Z,18.23
2022-10-06T16:23:54.075Z,18.12
2022-10-06T16:26:40.291Z,18.19
2022-10-06T16:29:26.325Z,17.78
2022-10-06T16:32:12.449Z,18.15
2022-10-06T16:34:58.254Z,17.83
2022-10-06T16:37:49.741Z,18.10
2022-10-06T16:40:35.663Z,18.51
2022-10-06T16:43:23.284Z,18.64
2022-10-06T16:46:10.062Z,18.75
2022-10-06T16:48:56.889Z,19.01
2022-10-06T16:51:43.293Z,18.26
2022-10-06T16:54:29.723Z,17.95
2022-10-06T16:57:15.605Z,17.63
2022-10-06T17:00:05.651Z,17.62
2022-10-06T17:02:52.510Z,16.98
2022-10-06T17:05:38.548Z,16.93
2022-10-06T17:08:24.639Z,17.22
2022-10-06T17:11:15.903Z,18.00
2022-10-06T17:14:01.748Z,17.71
2022-10-06T17:16:49.008Z,18.25
2022-10-06T17:19:34.855Z,18.46
2022-10-06T17:22:21.632Z,18.59
2022-10-06T17:25:07.717Z,18.81
2022-10-06T17:27:53.971Z,18.40
2022-10-06T17:30:39.661Z,18.75
2022-10-06T17:33:27.106Z,19.06
2022-10-06T17:36:22.003Z,18.88
2022-10-06T17:39:08.968Z,19.13
2022-10-06T17:41:54.786Z,18.79
2022-10-06T17:44:41.247Z,18.83
2022-10-06T17:47:27.912Z,18.99
2022-10-06T17:50:14.549Z,18.57
2022-10-06T17:53:00.345Z,17.90
2022-10-06T17:55:47.778Z,18.35
2022-10-06T17:58:35.280Z,18.77
2022-10-06T18:01:21.908Z,18.67
2022-10-06T18:04:08.304Z,18.77
2022-10-06T18:06:54.226Z,18.66
2022-10-06T18:09:40.424Z,18.71
2022-10-06T18:12:26.364Z,18.60
2022-10-06T18:15:13.143Z,17.93
2022-10-06T18:17:59.591Z,18.02
2022-10-06T18:20:48.282Z,17.95
2022-10-06T18:23:35.609Z,18.05
2022-10-06T18:26:21.580Z,17.59
2022-10-06T18:29:08.207Z,17.61
2022-10-06T18:31:54.367Z,17.43
2022-10-06T18:37:53.179Z,17.97
2022-10-06T18:40:42.289Z,17.92
2022-10-06T18:43:28.830Z,18.00
2022-10-06T18:46:34.312Z,18.10
2022-10-06T18:49:21.283Z,18.07
2022-10-06T18:52:07.540Z,17.69
2022-10-06T18:54:53.614Z,17.69
2022-10-06T18:57:40.427Z,17.61
2022-10-06T19:00:26.749Z,16.90
2022-10-06T19:03:12.855Z,17.15
2022-10-06T19:06:00.128Z,17.52
2022-10-06T19:08:50.201Z,17.57
2022-10-06T19:11:42.055Z,17.53
2022-10-06T19:14:31.139Z,17.64
2022-10-06T19:17:17.762Z,17.75
2022-10-06T19:20:03.952Z,17.56
2022-10-06T19:22:50.122Z,17.19
2022-10-06T19:25:36.081Z,17.27
2022-10-06T19:28:22.416Z,17.37
2022-10-06T19:31:13.546Z,17.29
2022-10-06T19:34:00.774Z,15.81
2022-10-06T19:36:49.523Z,15.05
2022-10-06T19:39:39.346Z,15.77
2022-10-06T19:42:43.754Z,16.32
2022-10-06T19:45:30.166Z,16.17
2022-10-06T19:48:16.800Z,16.61
2022-10-06T19:51:16.400Z,17.07
2022-10-06T19:54:02.721Z,17.17
2022-10-06T19:56:49.030Z,16.95
2022-10-06T19:59:36.658Z,16.82
2022-10-06T20:02:23.437Z,16.86
2022-10-06T20:05:13.680Z,16.53
2022-10-06T20:07:59.446Z,16.63
2022-10-06T20:10:45.827Z,16.93
2022-10-06T20:13:39.150Z,16.76
2022-10-06T20:16:25.766Z,16.64
2022-10-06T20:19:11.860Z,16.28
2022-10-06T20:21:57.928Z,16.31
2022-10-06T20:24:43.451Z,16.43
2022-10-06T20:27:29.854Z,15.48
2022-10-06T20:30:15.537Z,16.14
2022-10-06T20:33:03.335Z,16.40
2022-10-06T20:35:49.351Z,16.34
2022-10-06T20:38:54.687Z,16.23
2022-10-06T20:41:40.937Z,14.90
2022-10-06T20:44:27.204Z,15.68
2022-10-06T20:47:13.342Z,16.16
2022-10-06T20:49:59.319Z,16.25
2022-10-06T20:52:46.910Z,16.26
2022-10-06T20:55:33.006Z,16.28
2022-10-06T20:58:18.995Z,16.24
2022-10-06T21:01:06.311Z,16.09
2022-10-06T21:03:55.315Z,16.08
2022-10-06T21:06:41.729Z,15.74
2022-10-06T21:09:28.873Z,15.76
2022-10-06T21:12:16.085Z,15.78
2022-10-06T21:15:02.039Z,15.77
2022-10-06T21:17:49.294Z,15.89
2022-10-06T21:20:35.377Z,15.30
2022-10-06T21:23:21.809Z,15.42
2022-10-06T21:26:07.996Z,15.75
2022-10-06T21:28:53.941Z,16.01
2022-10-06T21:31:39.861Z,15.71
2022-10-06T21:34:25.827Z,15.42
2022-10-06T21:37:13.593Z,15.57
2022-10-06T21:40:02.281Z,15.22
2022-10-06T21:42:48.996Z,15.45
2022-10-06T21:45:38.384Z,15.09
2022-10-06T21:48:24.436Z,14.83
2022-10-06T21:51:10.260Z,14.31
2022-10-06T21:53:56.956Z,14.93
2022-10-06T21:56:43.625Z,14.07
2022-10-06T21:59:29.863Z,13.44
2022-10-06T22:02:16.124Z,13.66
2022-10-06T22:05:02.699Z,14.28
2022-10-06T22:07:48.659Z,14.38
2022-10-06T22:10:34.966Z,14.96
2022-10-06T22:13:20.693Z,15.18
2022-10-06T22:16:12.473Z,15.00
2022-10-06T22:18:58.506Z,15.00
2022-10-06T22:21:45.618Z,15.07
2022-10-06T22:24:31.345Z,15.09
2022-10-06T22:27:17.623Z,15.03
2022-10-06T22:30:03.584Z,14.81
2022-10-06T22:32:50.127Z,14.79
2022-10-06T22:35:35.799Z,14.91
2022-10-06T22:38:22.258Z,15.05
2022-10-06T22:41:09.511Z,15.14
2022-10-06T22:43:58.837Z,15.18
2022-10-06T22:46:44.889Z,15.10
2022-10-06T22:49:31.181Z,15.07
2022-10-06T22:52:16.975Z,14.26
2022-10-06T22:55:02.914Z,14.61
2022-10-06T22:57:48.864Z,15.00
2022-10-06T23:00:38.057Z,15.05
2022-10-06T23:03:24.129Z,14.77
2022-10-06T23:06:12.171Z,14.57
2022-10-06T23:08:58.129Z,14.33
2022-10-06T23:11:44.258Z,14.38
2022-10-06T23:14:30.363Z,14.25
2022-10-06T23:17:16.810Z,14.43
2022-10-06T23:20:02.853Z,14.61
2022-10-06T23:22:49.376Z,14.66
2022-10-06T23:25:38.526Z,13.94
2022-10-06T23:28:24.816Z,14.01
2022-10-06T23:31:11.061Z,14.12
2022-10-06T23:33:57.186Z,14.64
2022-10-06T23:36:43.282Z,14.64
2022-10-06T23:39:29.667Z,13.91
2022-10-06T23:42:15.526Z,13.56
2022-10-06T23:45:01.566Z,13.36
2022-10-06T23:47:47.621Z,13.44
2022-10-06T23:50:33.913Z,13.85
2022-10-06T23:53:19.723Z,14.18
2022-10-06T23:56:06.200Z,13.93
2022-10-06T23:58:52.256Z,13.85
